Accueil
METAR-TAF:

METAR-TAF

Aéroports :

Paris-Orly, France

Aéroport de Paris-Orly

latitude: 48-44N, longitude: 002-24E, altitude: 89 m

Observation

Le bulletin a été fait il y a 27 minutes, à 06:30 UTC
Vent 8 kt de ouest/nord-ouest, variant entre ouest et nord-ouest
Température 17°C
Humidité 72%
Pression 1019 hPa
Visibilité 10 km ou plus
Nuages fragmentés à une hauteur de 1800 ft

METAR: LFPO 230630Z 29008KT 260V320 9999 BKN018 17/12 Q1019 NOSIG

Heure: 08:57 (06:57 UTC)

Prévision

Le bulletin a été fait il y a 1 heure et 57 minutes, à 05:00 UTC
Prévision valable du 23 à 06 UTC au 24 à 12 UTC
Vent 8 kt de ouest/nord-ouest
Visibilité 10 km ou plus
pas de nuages en-dessous de 1500 mètres et pas de cumulonimbus.
Temporairement
du 23 à 06 UTC au 23 à 12 UTC
Nuages fragmentés à une hauteur de 3000 ft

TAF: LFPO 230500Z 2306/2412 30008KT CAVOK TEMPO 2306/2312 BKN030

Observations et prévisions météorologiques de plus de 4000 aéroports (messages METAR et TAF).

Les stations disponibles sont représentées par des disques jaunes et rouges sur la carte.

Passer la souris dessus pour voir le nom de la station.

Cliquer dessus pour voir les observations et prévisions météorologiques.

Pour changer de carte: cliquez sur les boutons verts avec une croix noire pour zoomer, sur le bouton vert avec un tiret pour effectuer un zoom arrière, ou sur les flèches vertes pour les cartes adjacentes.


METAR-TAF: